Time;durP1;ratioP1;P1;durP2;ratioP2;P2;SDS_P1;SDS_P2;PMS_P1;PMS_P2;Temp;Humidity;BMP_temperature;BMP_pressure;BME280_temperature;BME280_humidity;BME280_pressure;Samples;Min_cycle;Max_cycle;Signal;HPM_P1;HPM_P2
2023/04/07 00:00:55;;;;;;;29.70;14.95;;;;;;;5.40;44.11;101549.75;4983070;28;20121;-76
2023/04/07 00:03:21;;;;;;;26.27;15.05;;;;;;;5.45;44.30;101550.56;4982780;28;20073;-79
2023/04/07 00:05:47;;;;;;;25.20;13.35;;;;;;;5.55;44.04;101541.84;4985058;28;20727;-79
2023/04/07 00:08:12;;;;;;;27.83;14.55;;;;;;;5.70;43.47;101543.44;5000711;28;20120;-79
2023/04/07 00:10:38;;;;;;;28.45;13.73;;;;;;;5.73;43.23;101543.44;4987172;28;20034;-78
2023/04/07 00:13:03;;;;;;;29.48;15.00;;;;;;;5.52;43.69;101547.06;4984753;28;20049;-77
2023/04/07 00:15:31;;;;;;;34.03;15.38;;;;;;;5.38;44.30;101551.50;4984533;28;20033;-77
2023/04/07 00:17:56;;;;;;;28.20;15.48;;;;;;;5.39;44.18;101548.03;4998908;28;20105;-76
2023/04/07 00:20:22;;;;;;;28.92;15.55;;;;;;;5.40;44.14;101554.94;5001146;28;20113;-75
2023/04/07 00:22:48;;;;;;;30.88;15.75;;;;;;;5.40;44.05;101544.56;4984784;28;20041;-78
2023/04/07 00:25:14;;;;;;;27.20;15.85;;;;;;;5.41;43.37;101551.47;4984435;28;20142;-78
2023/04/07 00:27:40;;;;;;;28.60;14.60;;;;;;;5.31;43.60;101542.91;4956826;28;20046;-78
2023/04/07 00:30:06;;;;;;;25.90;15.15;;;;;;;5.34;43.78;101545.47;4963833;28;20031;-75
2023/04/07 00:32:31;;;;;;;27.25;14.50;;;;;;;5.36;43.54;101545.47;4970003;28;20605;-76
2023/04/07 00:34:59;;;;;;;26.73;15.32;;;;;;;5.36;43.71;101541.13;4981367;28;20045;-76
2023/04/07 00:37:24;;;;;;;31.15;14.73;;;;;;;5.34;43.81;101540.28;4984352;28;20072;-77
2023/04/07 00:39:53;;;;;;;29.33;14.82;;;;;;;5.27;43.91;101548.13;4986400;28;20502;-77
2023/04/07 00:42:19;;;;;;;26.70;12.80;;;;;;;5.29;44.31;101544.66;4983794;28;20049;-77
2023/04/07 00:44:44;;;;;;;22.23;12.27;;;;;;;5.24;44.32;101546.41;4982304;28;20029;-74
2023/04/07 00:47:11;;;;;;;23.27;12.88;;;;;;;5.24;44.32;101549.84;4976624;28;20052;-71
2023/04/07 00:49:39;;;;;;;21.52;12.10;;;;;;;5.17;44.40;101537.81;4995195;28;20550;-72
2023/04/07 00:52:10;;;;;;;25.80;12.80;;;;;;;5.10;44.97;101543.94;4993997;28;20041;-71
2023/04/07 00:54:37;;;;;;;25.63;11.77;;;;;;;5.03;45.39;101539.63;4973785;28;20653;-73
2023/04/07 00:57:02;;;;;;;24.75;12.73;;;;;;;5.07;44.92;101536.16;4955727;28;20038;-74
2023/04/07 00:59:30;;;;;;;24.55;13.52;;;;;;;5.02;44.96;101543.09;4973492;28;20072;-74
2023/04/07 01:02:06;;;;;;;24.55;13.20;;;;;;;5.01;45.25;101546.53;4996421;28;20034;-78
2023/04/07 01:04:40;;;;;;;24.10;12.38;;;;;;;5.02;45.73;101548.28;4984232;28;20034;-79
2023/04/07 01:07:14;;;;;;;22.85;11.18;;;;;;;5.05;45.16;101545.66;4983608;28;20049;-73
2023/04/07 01:10:00;;;;;;;20.83;11.45;;;;;;;5.02;45.31;101549.13;4978845;28;20026;-75
2023/04/07 01:12:34;;;;;;;24.65;12.25;;;;;;;4.96;45.74;101543.13;4994392;28;20042;-77
2023/04/07 01:15:15;;;;;;;21.70;11.52;;;;;;;4.96;45.53;101543.13;4997033;28;20038;-77
2023/04/07 01:17:51;;;;;;;21.15;11.98;;;;;;;4.89;45.59;101547.47;4967426;28;20069;-73
2023/04/07 01:20:21;;;;;;;20.25;11.40;;;;;;;4.76;46.20;101548.38;4993157;28;20034;-74
2023/04/07 01:22:53;;;;;;;18.15;11.25;;;;;;;4.89;45.96;101551.81;4993450;28;20327;-72
2023/04/07 01:25:52;;;;;;;20.75;11.80;;;;;;;4.92;45.52;101539.72;4992468;28;20030;-72
2023/04/07 01:28:43;;;;;;;22.35;13.07;;;;;;;4.98;45.54;101546.56;4992726;28;21473;-72
2023/04/07 01:31:11;;;;;;;27.70;12.82;;;;;;;5.01;45.69;101544.84;4984370;28;20030;-71
2023/04/07 01:33:38;;;;;;;22.48;12.23;;;;;;;4.97;45.58;101547.47;4971263;28;21155;-72
2023/04/07 01:36:06;;;;;;;25.00;12.00;;;;;;;4.97;45.32;101544.88;4977495;28;20038;-71
2023/04/07 01:38:32;;;;;;;25.13;13.88;;;;;;;5.01;45.07;101543.94;4980815;28;20039;-73
2023/04/07 01:41:00;;;;;;;21.75;12.02;;;;;;;4.96;45.59;101543.13;4982659;28;20505;-71
2023/04/07 01:43:27;;;;;;;22.85;11.93;;;;;;;4.93;45.57;101553.53;4979526;28;20042;-75
2023/04/07 01:45:54;;;;;;;27.25;12.50;;;;;;;4.98;45.51;101550.00;4974959;28;21960;-72
2023/04/07 01:48:21;;;;;;;25.48;12.98;;;;;;;4.88;45.56;101550.06;4973146;28;20041;-74
2023/04/07 01:50:48;;;;;;;26.40;13.45;;;;;;;4.87;45.38;101540.56;4977476;28;20068;-72
2023/04/07 01:53:15;;;;;;;29.23;13.77;;;;;;;4.87;45.31;101535.38;4967489;28;20065;-75
2023/04/07 01:55:44;;;;;;;29.13;14.98;;;;;;;4.93;45.11;101538.81;4972457;28;20509;-72
2023/04/07 01:58:10;;;;;;;26.10;13.70;;;;;;;4.88;45.14;101542.31;4983230;28;20040;-73
2023/04/07 02:00:40;;;;;;;26.65;13.15;;;;;;;4.88;44.94;101544.88;4976759;28;20037;-72
2023/04/07 02:03:21;;;;;;;26.67;15.50;;;;;;;5.03;44.79;101542.22;4980235;28;20200;-73
2023/04/07 02:05:51;;;;;;;25.70;14.07;;;;;;;4.95;44.84;101546.59;4981442;28;20100;-73
2023/04/07 02:08:20;;;;;;;24.15;11.65;;;;;;;5.05;44.42;101549.09;4963123;28;20034;-72
2023/04/07 02:10:48;;;;;;;24.67;13.40;;;;;;;4.94;44.49;101545.72;4981541;28;20025;-73
2023/04/07 02:13:17;;;;;;;24.23;14.18;;;;;;;4.92;44.74;101552.66;4990409;28;20037;-76
2023/04/07 02:15:48;;;;;;;27.25;14.68;;;;;;;4.83;44.75;101547.47;4983320;28;20045;-76
2023/04/07 02:18:19;;;;;;;23.65;13.38;;;;;;;4.82;44.89;101554.38;4957406;28;20038;-75
2023/04/07 02:20:46;;;;;;;24.10;13.23;;;;;;;4.83;44.49;101547.47;4980317;28;20457;-75
2023/04/07 02:23:12;;;;;;;24.58;12.77;;;;;;;4.84;44.68;101542.28;4984287;28;20042;-76
2023/04/07 02:25:38;;;;;;;23.05;11.30;;;;;;;4.82;44.34;101556.13;4963958;28;20030;-75
2023/04/07 02:28:06;;;;;;;23.10;13.98;;;;;;;4.61;45.09;101552.78;4997698;28;20140;-73
2023/04/07 02:30:34;;;;;;;24.58;12.10;;;;;;;4.64;45.19;101562.25;4984123;28;20038;-73
2023/04/07 02:33:00;;;;;;;23.58;13.38;;;;;;;4.52;45.24;101563.19;4982396;28;20050;-73
2023/04/07 02:35:25;;;;;;;23.27;13.02;;;;;;;4.56;45.22;101558.81;4995570;28;20034;-73
2023/04/07 02:37:51;;;;;;;20.23;12.20;;;;;;;4.36;45.21;101558.91;4972293;28;20612;-72
2023/04/07 02:40:17;;;;;;;20.85;11.38;;;;;;;4.41;44.94;101564.94;4981101;28;20087;-71
2023/04/07 02:42:43;;;;;;;20.33;9.07;;;;;;;4.33;45.10;101559.78;4973512;28;20034;-74
2023/04/07 02:45:09;;;;;;;21.45;9.90;;;;;;;4.23;45.21;101565.84;4977555;28;20486;-74
2023/04/07 02:47:38;;;;;;;16.90;9.68;;;;;;;4.41;44.57;101565.78;4961050;28;20038;-73
2023/04/07 02:50:06;;;;;;;14.48;9.20;;;;;;;4.33;44.51;101564.94;4959341;28;20111;-74
2023/04/07 02:52:34;;;;;;;18.90;9.38;;;;;;;4.46;44.06;101572.69;4980272;28;20062;-76
2023/04/07 02:55:02;;;;;;;18.38;8.93;;;;;;;4.63;43.66;101564.00;4977724;28;20141;-74
2023/04/07 02:57:28;;;;;;;17.75;9.75;;;;;;;4.29;44.20;101560.63;4980010;28;20221;-74
2023/04/07 02:59:57;;;;;;;18.05;9.55;;;;;;;4.32;44.03;101564.94;4982680;28;20034;-74
2023/04/07 03:02:29;;;;;;;14.38;9.55;;;;;;;4.35;44.16;101563.22;4983608;28;20038;-76
2023/04/07 03:04:55;;;;;;;16.80;9.77;;;;;;;4.27;44.01;101564.09;4983432;28;20033;-73
2023/04/07 03:07:24;;;;;;;16.15;8.80;;;;;;;4.31;44.32;101568.41;4979616;28;20038;-74
2023/04/07 03:09:53;;;;;;;16.77;8.77;;;;;;;4.37;43.87;101571.84;4982530;28;20034;-75
2023/04/07 03:12:19;;;;;;;20.08;8.55;;;;;;;4.42;43.63;101571.81;4981128;28;20068;-74
2023/04/07 03:14:45;;;;;;;16.42;9.75;;;;;;;4.31;43.75;101566.69;4996613;28;20221;-74
2023/04/07 03:17:10;;;;;;;16.67;8.27;;;;;;;4.47;43.31;101569.22;4981694;28;20048;-73
2023/04/07 03:19:38;;;;;;;16.38;9.85;;;;;;;4.58;43.09;101567.44;4973334;28;20133;-76
2023/04/07 03:22:03;;;;;;;16.90;8.82;;;;;;;4.50;43.12;101569.19;4981605;28;20038;-76
2023/04/07 03:24:33;;;;;;;12.98;8.02;;;;;;;4.43;42.67;101573.53;4979783;28;20030;-74
2023/04/07 03:27:01;;;;;;;16.67;8.93;;;;;;;4.54;42.65;101565.72;4990648;28;20034;-75
2023/04/07 03:29:56;;;;;;;12.88;8.30;;;;;;;4.49;42.38;101562.31;4978197;28;20038;-76
2023/04/07 03:32:27;;;;;;;17.63;8.50;;;;;;;4.42;42.46;101575.25;4994654;28;20038;-73
2023/04/07 03:34:52;;;;;;;15.65;8.50;;;;;;;4.40;42.63;101570.97;4983542;28;20064;-75
2023/04/07 03:37:17;;;;;;;14.18;8.10;;;;;;;4.29;42.65;101568.41;4976504;28;20034;-74
2023/04/07 03:39:44;;;;;;;15.07;9.07;;;;;;;4.30;42.61;101577.06;4981417;28;20112;-75
2023/04/07 03:42:24;;;;;;;14.02;8.93;;;;;;;4.28;43.08;101568.44;4995068;28;20119;-73
2023/04/07 03:44:55;;;;;;;12.10;8.68;;;;;;;4.35;42.64;101570.97;4965509;28;20026;-74
2023/04/07 03:47:22;;;;;;;14.45;7.88;;;;;;;4.25;42.77;101569.28;4973630;28;20518;-72
2023/04/07 03:49:55;;;;;;;13.38;6.80;;;;;;;4.26;42.44;101572.75;4994372;28;20038;-72
2023/04/07 03:52:21;;;;;;;17.52;8.98;;;;;;;4.13;42.65;101565.00;4979374;28;20145;-77
2023/04/07 03:54:53;;;;;;;19.17;9.23;;;;;;;4.16;42.67;101570.19;4979475;28;20119;-76
2023/04/07 03:57:22;;;;;;;17.10;8.32;;;;;;;4.10;42.73;101579.69;4975092;28;20534;-72
2023/04/07 03:59:50;;;;;;;18.83;9.35;;;;;;;4.04;42.66;101582.28;4996915;28;20137;-72
2023/04/07 04:02:17;;;;;;;18.05;9.10;;;;;;;4.16;42.36;101582.22;4978051;28;20034;-72
2023/04/07 04:04:46;;;;;;;19.50;8.57;;;;;;;4.18;42.67;101583.09;4976368;28;20095;-73
2023/04/07 04:07:13;;;;;;;15.32;8.32;;;;;;;3.97;42.74;101584.84;4975823;28;20120;-73
2023/04/07 04:09:48;;;;;;;18.38;8.88;;;;;;;4.12;42.51;101583.09;4994956;28;20649;-71
2023/04/07 04:12:13;;;;;;;13.82;9.10;;;;;;;3.92;43.12;101586.59;4986481;28;20042;-75
2023/04/07 04:14:48;;;;;;;15.02;8.55;;;;;;;3.99;42.43;101577.97;4977380;28;20073;-75
2023/04/07 04:17:15;;;;;;;15.10;7.85;;;;;;;3.89;42.63;101591.75;4978077;28;20483;-73
2023/04/07 04:19:44;;;;;;;15.25;8.10;;;;;;;3.94;42.57;101591.75;4976756;28;20037;-74
2023/04/07 04:22:20;;;;;;;18.75;8.15;;;;;;;3.86;42.59;101591.75;4973443;28;20054;-74
2023/04/07 04:24:50;;;;;;;11.60;8.23;;;;;;;4.02;42.15;101590.03;4978658;28;20037;-72
2023/04/07 04:27:19;;;;;;;16.77;8.82;;;;;;;3.79;42.86;101590.03;4994228;28;20507;-72
2023/04/07 04:29:51;;;;;;;13.25;7.95;;;;;;;3.84;42.34;101593.47;4977944;28;20148;-71
2023/04/07 04:32:22;;;;;;;16.55;8.60;;;;;;;3.69;42.67;101598.66;4978472;28;20049;-70
2023/04/07 04:34:53;;;;;;;18.13;8.85;;;;;;;3.69;42.37;101603.81;4965655;28;20030;-73
2023/04/07 04:37:19;;;;;;;13.95;7.82;;;;;;;3.66;42.39;101603.84;4963221;28;20049;-73
2023/04/07 04:39:50;;;;;;;20.35;8.57;;;;;;;3.65;42.37;101607.25;4978164;28;20072;-73
2023/04/07 04:42:19;;;;;;;18.40;8.68;;;;;;;3.66;42.27;101614.19;4992203;28;20462;-71
2023/04/07 04:44:46;;;;;;;14.32;8.07;;;;;;;3.74;42.25;101617.63;4959958;28;20045;-73
2023/04/07 04:47:13;;;;;;;13.07;7.30;;;;;;;3.68;42.24;101622.78;4978335;28;20125;-72
2023/04/07 04:49:41;;;;;;;12.93;8.07;;;;;;;3.56;42.59;101624.50;4961258;28;20038;-74
2023/04/07 04:52:07;;;;;;;12.35;7.60;;;;;;;3.43;42.71;101617.59;4977070;28;20034;-70
2023/04/07 04:54:39;;;;;;;14.70;8.27;;;;;;;3.39;42.74;101621.03;4961253;28;20142;-70
2023/04/07 04:57:06;;;;;;;15.73;8.05;;;;;;;3.64;42.17;101621.91;4980775;28;20045;-73
2023/04/07 04:59:33;;;;;;;21.02;8.27;;;;;;;3.78;41.84;101620.22;4971167;28;20068;-72
2023/04/07 05:02:02;;;;;;;13.80;6.93;;;;;;;3.76;41.86;101628.81;4975019;28;20045;-74
2023/04/07 05:04:28;;;;;;;20.02;8.73;;;;;;;3.61;41.66;101627.09;4961328;28;20034;-72
2023/04/07 05:07:00;;;;;;;13.05;8.70;;;;;;;3.59;42.02;101632.25;4980423;28;20037;-77
2023/04/07 05:09:28;;;;;;;14.18;7.80;;;;;;;3.63;41.64;101624.50;4989046;28;20026;-73
2023/04/07 05:11:54;;;;;;;17.08;8.13;;;;;;;3.60;41.73;101633.13;4980114;28;20026;-69
2023/04/07 05:14:23;;;;;;;13.40;8.40;;;;;;;3.54;41.65;101633.97;4975593;28;20510;-72
2023/04/07 05:16:54;;;;;;;14.57;7.80;;;;;;;3.83;41.24;101638.31;4979695;28;20455;-70
2023/04/07 05:19:23;;;;;;;15.68;8.43;;;;;;;3.76;41.06;101636.56;4976383;28;20057;-73
2023/04/07 05:21:53;;;;;;;14.13;7.70;;;;;;;3.72;41.01;101642.63;4984191;28;20065;-75
2023/04/07 05:24:22;;;;;;;12.52;8.23;;;;;;;3.66;40.97;101643.47;4970839;28;20331;-73
2023/04/07 05:26:56;;;;;;;13.05;7.80;;;;;;;3.82;40.65;101643.47;4976265;28;20387;-73
2023/04/07 05:29:22;;;;;;;14.70;8.20;;;;;;;4.07;40.58;101654.69;4977001;28;20030;-73
2023/04/07 05:31:50;;;;;;;13.48;7.57;;;;;;;4.09;40.49;101650.38;4992854;28;20038;-69
2023/04/07 05:34:16;;;;;;;12.85;7.82;;;;;;;4.11;40.14;101649.50;4978448;28;20487;-72
2023/04/07 05:36:48;;;;;;;16.17;8.05;;;;;;;4.23;39.54;101640.91;4972356;28;20034;-74
2023/04/07 05:39:15;;;;;;;13.63;8.32;;;;;;;4.31;39.82;101646.91;4978368;28;20053;-72
2023/04/07 05:41:41;;;;;;;15.25;8.05;;;;;;;4.46;39.37;101656.38;4991438;28;20045;-72
2023/04/07 05:44:08;;;;;;;14.43;7.55;;;;;;;5.39;36.78;101657.78;4978637;28;20040;-72
2023/04/07 05:46:38;;;;;;;13.93;7.20;;;;;;;6.00;35.85;101664.25;4960076;28;21247;-73
2023/04/07 05:49:04;;;;;;;15.52;7.55;;;;;;;6.65;34.46;101655.91;4980238;28;20101;-74
2023/04/07 05:51:30;;;;;;;13.82;7.55;;;;;;;6.66;34.67;101668.00;4975421;28;20068;-71
2023/04/07 05:54:02;;;;;;;11.20;7.07;;;;;;;6.71;34.45;101666.22;4964438;28;20033;-72
2023/04/07 05:56:27;;;;;;;10.38;7.50;;;;;;;6.82;33.80;101666.97;4973544;28;20038;-71
2023/04/07 05:58:53;;;;;;;11.50;7.25;;;;;;;7.21;32.83;101671.69;4975117;28;20594;-69
2023/04/07 06:01:20;;;;;;;12.32;7.53;;;;;;;8.00;31.68;101671.41;4974330;28;20156;-70
2023/04/07 06:03:46;;;;;;;15.25;8.02;;;;;;;8.33;30.90;101673.44;4993168;28;20046;-70
2023/04/07 06:06:15;;;;;;;11.20;7.57;;;;;;;7.93;31.38;101673.25;4974943;28;20137;-71
2023/04/07 06:08:41;;;;;;;11.93;6.90;;;;;;;8.11;30.91;101680.78;4989191;28;20034;-70
2023/04/07 06:11:06;;;;;;;13.65;7.80;;;;;;;9.25;29.31;101670.78;4958180;28;20042;-70
2023/04/07 06:13:33;;;;;;;9.23;7.30;;;;;;;9.02;29.18;101673.88;4981054;28;20141;-70
2023/04/07 06:16:01;;;;;;;12.07;7.13;;;;;;;9.65;28.47;101675.09;4984777;28;20042;-69
2023/04/07 06:18:27;;;;;;;11.60;7.13;;;;;;;9.64;27.90;101680.38;4983659;28;20077;-71
2023/04/07 06:20:52;;;;;;;13.02;6.75;;;;;;;9.57;28.33;101677.91;4987272;28;20071;-71
2023/04/07 06:23:21;;;;;;;12.27;7.78;;;;;;;9.77;27.93;101685.28;4978563;28;20045;-68
2023/04/07 06:25:50;;;;;;;10.52;6.45;;;;;;;9.40;28.20;101688.72;5000051;28;20103;-69
2023/04/07 06:28:17;;;;;;;9.35;6.25;;;;;;;10.16;27.27;101687.81;4971312;28;20162;-69
2023/04/07 06:30:42;;;;;;;11.35;6.57;;;;;;;10.33;27.03;101699.63;4998487;28;20050;-70
2023/04/07 06:33:11;;;;;;;9.82;7.60;;;;;;;10.57;26.58;101701.59;4970911;28;20040;-71
2023/04/07 06:35:38;;;;;;;11.75;7.60;;;;;;;10.48;26.38;101704.44;4996908;28;20289;-70
2023/04/07 06:38:06;;;;;;;10.43;7.43;;;;;;;10.20;27.15;101710.38;5000690;28;20037;-69
2023/04/07 06:40:32;;;;;;;12.27;7.70;;;;;;;10.71;26.97;101705.59;4979113;28;20038;-70
2023/04/07 06:42:57;;;;;;;10.02;8.25;;;;;;;10.69;26.48;101716.06;4985192;28;20546;-71
2023/04/07 06:45:32;;;;;;;13.23;8.05;;;;;;;10.39;26.94;101720.34;4981378;28;20169;-70
2023/04/07 06:47:58;;;;;;;13.88;8.77;;;;;;;10.90;26.23;101725.09;4982699;28;20519;-69
2023/04/07 06:50:23;;;;;;;13.88;7.68;;;;;;;11.32;25.90;101723.94;4984296;28;21107;-70
2023/04/07 06:52:51;;;;;;;13.65;8.15;;;;;;;11.86;25.02;101729.25;4994371;28;20030;-71
2023/04/07 06:55:16;;;;;;;10.55;7.43;;;;;;;12.20;24.54;101722.06;4973810;28;20100;-70
2023/04/07 06:57:42;;;;;;;11.95;7.85;;;;;;;12.27;23.86;101727.06;4981003;28;21777;-71
2023/04/07 07:00:08;;;;;;;13.95;7.18;;;;;;;11.72;24.56;101728.81;4976734;28;20056;-70
2023/04/07 07:02:33;;;;;;;12.48;7.03;;;;;;;11.84;24.41;101728.47;4974802;28;20478;-71
2023/04/07 07:05:02;;;;;;;9.95;7.22;;;;;;;11.63;24.67;101723.84;4955950;28;20342;-72
2023/04/07 07:07:28;;;;;;;10.18;7.65;;;;;;;12.21;24.01;101732.50;4990905;28;20046;-71
2023/04/07 07:09:53;;;;;;;12.20;7.80;;;;;;;12.49;23.85;101742.91;4979262;28;20187;-71
2023/04/07 07:12:18;;;;;;;10.10;7.30;;;;;;;13.05;22.82;101733.97;4981370;28;20022;-71
2023/04/07 07:14:44;;;;;;;11.40;8.35;;;;;;;12.93;23.00;101730.94;4984529;28;20410;-71
2023/04/07 07:17:09;;;;;;;12.10;6.80;;;;;;;12.37;24.03;101737.22;4975720;28;20104;-71
2023/04/07 07:19:35;;;;;;;11.77;7.50;;;;;;;10.94;25.36;101747.66;4978113;28;20034;-72
2023/04/07 07:22:03;;;;;;;12.88;7.93;;;;;;;9.42;27.46;101751.31;4983380;28;20253;-71
2023/04/07 07:24:32;;;;;;;12.68;8.23;;;;;;;8.47;28.77;101764.38;4994054;28;20037;-72
2023/04/07 07:26:58;;;;;;;10.70;6.85;;;;;;;8.07;29.42;101765.03;4997616;28;20065;-70
2023/04/07 07:29:26;;;;;;;14.13;7.80;;;;;;;8.00;29.79;101768.59;4975359;28;20042;-70
2023/04/07 07:31:51;;;;;;;10.57;7.45;;;;;;;8.15;29.91;101773.56;4979888;28;20084;-71
2023/04/07 07:34:17;;;;;;;13.13;7.90;;;;;;;8.68;29.41;101772.72;4982693;28;20117;-69
2023/04/07 07:36:42;;;;;;;13.70;8.25;;;;;;;8.34;29.88;101770.69;4969474;28;20057;-71
2023/04/07 07:39:07;;;;;;;20.40;9.02;;;;;;;9.07;29.48;101778.09;4997295;28;20802;-71
2023/04/07 07:41:33;;;;;;;10.48;7.20;;;;;;;9.98;28.13;101771.84;4971682;28;20092;-71
2023/04/07 07:44:01;;;;;;;16.63;9.00;;;;;;;9.59;28.46;101779.66;4983630;28;20038;-71
2023/04/07 07:46:27;;;;;;;12.00;6.90;;;;;;;10.54;27.26;101785.28;4975648;28;20105;-71
2023/04/07 07:48:55;;;;;;;11.55;7.22;;;;;;;10.45;27.66;101788.13;4995221;28;20033;-72
2023/04/07 07:51:21;;;;;;;10.13;7.68;;;;;;;10.27;27.95;101788.59;4958390;28;20038;-71
2023/04/07 07:53:47;;;;;;;10.63;7.60;;;;;;;11.94;25.93;101794.50;4978266;28;20032;-69
2023/04/07 07:56:12;;;;;;;14.18;8.23;;;;;;;12.78;24.81;101790.94;4995899;28;20264;-69
2023/04/07 07:58:38;;;;;;;9.93;7.47;;;;;;;11.52;26.21;101805.34;4976537;28;20554;-69
2023/04/07 08:01:06;;;;;;;8.82;6.90;;;;;;;10.62;27.56;101806.03;4981167;28;20052;-68
2023/04/07 08:03:32;;;;;;;13.55;8.38;;;;;;;9.74;28.98;101797.56;4978395;28;20050;-70
2023/04/07 08:05:57;;;;;;;13.40;9.23;;;;;;;10.22;28.82;101807.84;4974862;28;20088;-70
2023/04/07 08:08:23;;;;;;;19.48;9.25;;;;;;;11.05;27.55;101811.00;4976917;28;20062;-69
2023/04/07 08:10:48;;;;;;;11.85;7.57;;;;;;;10.30;28.96;101812.03;4977262;28;20029;-72
2023/04/07 08:13:13;;;;;;;11.23;7.55;;;;;;;10.60;28.84;101813.91;4982542;28;20877;-69
2023/04/07 08:15:39;;;;;;;9.38;6.30;;;;;;;11.67;27.31;101804.91;4978489;28;20034;-69
2023/04/07 08:18:06;;;;;;;8.57;6.57;;;;;;;12.82;26.13;101810.88;4980788;28;20419;-69
2023/04/07 08:20:32;;;;;;;9.73;6.13;;;;;;;13.16;25.55;101816.69;4979707;28;20137;-68
2023/04/07 08:22:58;;;;;;;9.95;6.65;;;;;;;13.35;25.14;101807.25;4993035;28;20046;-71
2023/04/07 08:25:27;;;;;;;9.88;7.00;;;;;;;13.37;24.92;101805.44;4976993;28;20071;-71
2023/04/07 08:27:52;;;;;;;12.50;6.75;;;;;;;13.59;24.97;101820.44;4974034;28;21923;-70
2023/04/07 08:30:19;;;;;;;10.23;6.88;;;;;;;13.70;24.77;101813.84;4956985;28;20032;-71
2023/04/07 08:32:45;;;;;;;12.27;6.28;;;;;;;13.92;24.58;101820.91;4974717;28;20041;-70
2023/04/07 08:35:11;;;;;;;9.07;5.82;;;;;;;14.52;23.82;101807.97;4983041;28;20045;-72
2023/04/07 08:37:40;;;;;;;11.35;7.07;;;;;;;14.18;24.26;101814.59;4968682;28;20050;-71
2023/04/07 08:40:06;;;;;;;11.52;6.25;;;;;;;14.28;24.09;101823.81;4981381;28;20037;-68
2023/04/07 08:42:34;;;;;;;11.30;6.63;;;;;;;14.97;23.71;101831.47;4989824;28;20403;-71
2023/04/07 08:45:08;;;;;;;8.90;7.28;;;;;;;13.83;24.08;101824.75;4958105;28;20762;-70
2023/04/07 08:47:36;;;;;;;9.45;6.68;;;;;;;13.47;24.90;101827.81;4975287;28;20099;-70
2023/04/07 08:50:06;;;;;;;9.20;6.72;;;;;;;13.62;25.04;101830.81;4977588;28;20060;-72
2023/04/07 08:52:48;;;;;;;8.55;6.40;;;;;;;12.63;26.03;101828.97;4976882;28;20065;-72
2023/04/07 08:55:14;;;;;;;;;;;;;;;12.87;26.25;101827.34;4980240;28;20566;-70
2023/04/07 08:57:41;;;;;;;9.52;6.32;;;;;;;12.25;26.12;101838.97;4968057;28;20039;-70
2023/04/07 09:00:07;;;;;;;8.60;6.95;;;;;;;12.54;26.10;101834.53;4975350;28;20324;-70
2023/04/07 09:02:42;;;;;;;13.43;7.00;;;;;;;11.60;27.32;101839.19;4977211;28;20076;-70
2023/04/07 09:05:09;;;;;;;10.68;7.00;;;;;;;11.28;27.53;101840.91;4978526;28;20033;-68
2023/04/07 09:07:37;;;;;;;8.23;7.05;;;;;;;11.05;28.60;101845.03;4977023;28;20409;-71
2023/04/07 09:10:03;;;;;;;10.82;7.13;;;;;;;11.21;27.86;101842.00;4977323;28;20418;-72
2023/04/07 09:12:30;;;;;;;12.52;6.15;;;;;;;11.04;28.55;101843.31;4976497;28;20086;-71
2023/04/07 09:14:56;;;;;;;8.05;6.70;;;;;;;11.17;28.60;101835.13;4976576;28;20029;-71
2023/04/07 09:17:23;;;;;;;8.30;6.10;;;;;;;11.72;27.75;101845.81;4976565;28;20545;-71
2023/04/07 09:19:49;;;;;;;11.88;6.93;;;;;;;11.42;27.87;101844.03;4976290;28;20111;-71
2023/04/07 09:22:33;;;;;;;12.05;7.38;;;;;;;11.79;27.20;101840.34;4974245;28;20045;-70
2023/04/07 09:25:15;;;;;;;11.70;6.32;;;;;;;11.36;27.85;101845.97;4979579;28;20033;-69
2023/04/07 09:28:01;;;;;;;10.48;7.25;;;;;;;11.45;27.74;101841.31;4965159;28;20179;-68
2023/04/07 09:30:29;;;;;;;9.05;6.70;;;;;;;12.16;27.77;101838.41;4967322;28;20571;-70
2023/04/07 09:32:55;;;;;;;9.43;6.22;;;;;;;12.12;27.64;101840.25;4976979;28;20095;-68
2023/04/07 09:35:23;;;;;;;11.63;6.60;;;;;;;11.86;27.07;101838.41;4969340;28;20556;-69
2023/04/07 09:38:08;;;;;;;9.07;6.15;;;;;;;11.08;27.74;101856.31;4974882;28;20840;-69
2023/04/07 09:40:35;;;;;;;12.60;6.57;;;;;;;11.15;27.24;101847.38;4976319;28;20045;-69
2023/04/07 09:43:02;;;;;;;9.05;7.07;;;;;;;10.55;28.21;101856.75;4977952;28;20047;-69
2023/04/07 09:45:31;;;;;;;14.80;7.22;;;;;;;10.55;27.52;101839.31;4976220;28;20526;-68
2023/04/07 09:47:59;;;;;;;10.02;6.10;;;;;;;10.55;27.43;101841.06;4978998;28;20050;-68
2023/04/07 09:50:34;;;;;;;9.43;6.97;;;;;;;10.44;26.09;101843.94;4979173;28;20604;-73
2023/04/07 09:53:01;;;;;;;15.35;6.82;;;;;;;9.97;26.05;101838.06;4980997;28;21494;-72
2023/04/07 09:55:30;;;;;;;7.88;6.45;;;;;;;10.56;25.79;101835.78;4977847;28;20030;-70
2023/04/07 09:57:56;;;;;;;9.40;6.05;;;;;;;10.51;24.34;101835.03;4994381;28;20049;-69
2023/04/07 10:00:22;;;;;;;11.23;6.70;;;;;;;10.82;24.02;101844.78;4980256;28;20034;-69
2023/04/07 10:02:49;;;;;;;16.45;7.07;;;;;;;10.86;24.73;101846.41;4977604;28;20507;-72
2023/04/07 10:05:15;;;;;;;9.00;5.18;;;;;;;11.02;24.65;101855.56;4994728;28;20112;-71
2023/04/07 10:07:43;;;;;;;9.00;5.43;;;;;;;11.16;23.91;101849.13;4976518;28;20184;-69
2023/04/07 10:10:11;;;;;;;11.95;5.60;;;;;;;11.56;24.41;101848.00;4981934;28;20109;-69
2023/04/07 10:12:39;;;;;;;10.60;6.45;;;;;;;11.77;23.33;101847.41;4977661;28;20409;-71
2023/04/07 10:15:11;;;;;;;10.82;5.85;;;;;;;11.96;23.17;101841.63;4980558;28;20037;-69
2023/04/07 10:17:39;;;;;;;11.27;5.53;;;;;;;11.01;23.11;101830.31;4977472;28;20069;-68
2023/04/07 10:20:08;;;;;;;9.02;5.82;;;;;;;11.65;24.10;101845.13;4980224;28;20737;-68
2023/04/07 10:22:35;;;;;;;9.63;5.82;;;;;;;12.34;23.70;101836.97;4977750;28;20543;-71
2023/04/07 10:25:10;;;;;;;10.07;6.20;;;;;;;12.03;23.25;101856.25;4976938;28;20908;-71
2023/04/07 10:27:48;;;;;;;6.32;5.63;;;;;;;11.53;23.74;101850.69;4977788;28;20046;-70
2023/04/07 10:30:19;;;;;;;9.32;5.57;;;;;;;11.84;23.83;101856.81;4977909;28;20064;-70
2023/04/07 10:32:52;;;;;;;9.18;5.70;;;;;;;12.38;22.76;101852.53;4976449;28;20068;-71
2023/04/07 10:35:19;;;;;;;9.07;5.05;;;;;;;11.43;22.92;101864.06;4992986;28;20072;-71
2023/04/07 10:38:07;;;;;;;9.90;5.78;;;;;;;10.82;23.97;101860.47;4976363;28;20414;-71
2023/04/07 10:40:33;;;;;;;9.73;6.45;;;;;;;11.18;24.06;101863.03;4980896;28;20046;-71
2023/04/07 10:43:00;;;;;;;10.70;5.82;;;;;;;11.23;23.79;101861.13;4993948;28;20065;-71
2023/04/07 10:45:58;;;;;;;8.85;5.43;;;;;;;12.26;23.39;101866.88;4978934;28;20042;-70
2023/04/07 10:48:24;;;;;;;6.00;5.25;;;;;;;12.23;23.14;101866.13;4973728;28;21080;-69
2023/04/07 10:51:06;;;;;;;8.07;5.18;;;;;;;11.97;22.45;101869.53;4977437;28;20124;-70
2023/04/07 10:53:31;;;;;;;9.85;5.78;;;;;;;11.26;23.35;101874.13;4959777;28;20039;-70
2023/04/07 10:55:58;;;;;;;8.18;5.47;;;;;;;11.61;22.93;101872.31;4973097;28;20129;-71
2023/04/07 10:58:24;;;;;;;7.90;5.07;;;;;;;11.58;22.49;101880.25;4978189;28;20030;-70
2023/04/07 11:00:56;;;;;;;8.75;5.43;;;;;;;12.08;22.26;101867.44;4970965;28;20038;-71
2023/04/07 11:03:23;;;;;;;7.97;5.25;;;;;;;12.38;22.69;101870.00;4977520;28;20087;-70
2023/04/07 11:05:49;;;;;;;7.72;5.32;;;;;;;12.51;22.46;101879.19;4962395;28;20038;-71
2023/04/07 11:08:30;;;;;;;8.48;5.20;;;;;;;12.86;21.91;101879.84;4993959;28;20034;-69
2023/04/07 11:10:56;;;;;;;7.13;4.72;;;;;;;12.74;21.65;101875.88;4973599;28;20422;-69
2023/04/07 11:13:22;;;;;;;9.38;5.78;;;;;;;12.40;21.67;101887.44;4979522;28;20701;-69
2023/04/07 11:15:50;;;;;;;8.52;5.22;;;;;;;11.96;21.96;101891.41;4975632;28;20045;-68
2023/04/07 11:18:20;;;;;;;9.43;6.30;;;;;;;12.50;21.82;101882.75;4978879;28;20034;-70
2023/04/07 11:20:52;;;;;;;9.07;5.65;;;;;;;12.44;22.27;101880.31;4977834;28;20033;-69
2023/04/07 11:23:19;;;;;;;7.55;5.05;;;;;;;12.96;21.95;101881.25;4978192;28;20458;-70
2023/04/07 11:25:47;;;;;;;9.43;5.30;;;;;;;12.79;21.46;101884.44;4977444;28;20030;-69
2023/04/07 11:28:14;;;;;;;11.07;5.78;;;;;;;13.06;21.45;101879.16;4980549;28;20038;-69